sensor_id;sensor_type;location;lat;lon;timestamp;pressure;altitude;pressure_sealevel;temperature;humidity
64292;BME280;50628;51.008;13.658;2023-07-13T00:00:03;99411.31;;;21.01;100.00
64292;BME280;50628;51.008;13.658;2023-07-13T00:05:09;99411.56;;;21.13;100.00
64292;BME280;50628;51.008;13.658;2023-07-13T00:10:13;99422.75;;;21.15;100.00
64292;BME280;50628;51.008;13.658;2023-07-13T00:15:16;99432.03;;;20.91;100.00
64292;BME280;50628;51.008;13.658;2023-07-13T00:20:24;99444.88;;;20.94;100.00
64292;BME280;50628;51.008;13.658;2023-07-13T00:25:27;99472.16;;;21.01;100.00
64292;BME280;50628;51.008;13.658;2023-07-13T00:30:29;99490.94;;;20.65;100.00
64292;BME280;50628;51.008;13.658;2023-07-13T00:35:32;99500.19;;;20.26;100.00
64292;BME280;50628;51.008;13.658;2023-07-13T00:40:36;99528.91;;;20.01;100.00
64292;BME280;50628;51.008;13.658;2023-07-13T00:46:13;99532.09;;;19.60;100.00
64292;BME280;50628;51.008;13.658;2023-07-13T00:51:19;99530.84;;;19.19;100.00
64292;BME280;50628;51.008;13.658;2023-07-13T00:56:23;99493.66;;;19.14;100.00
64292;BME280;50628;51.008;13.658;2023-07-13T01:01:25;99439.56;;;19.25;100.00
64292;BME280;50628;51.008;13.658;2023-07-13T01:06:28;99472.91;;;19.11;100.00
64292;BME280;50628;51.008;13.658;2023-07-13T01:11:32;99478.75;;;19.07;100.00
64292;BME280;50628;51.008;13.658;2023-07-13T01:16:36;99477.50;;;18.58;100.00
64292;BME280;50628;51.008;13.658;2023-07-13T01:21:41;99484.38;;;18.44;100.00
64292;BME280;50628;51.008;13.658;2023-07-13T01:26:43;99492.09;;;18.31;100.00
64292;BME280;50628;51.008;13.658;2023-07-13T01:31:45;99496.81;;;18.21;100.00
64292;BME280;50628;51.008;13.658;2023-07-13T01:36:48;99484.66;;;18.20;100.00
64292;BME280;50628;51.008;13.658;2023-07-13T01:41:50;99496.66;;;18.22;100.00
64292;BME280;50628;51.008;13.658;2023-07-13T01:46:54;99498.81;;;18.19;100.00
64292;BME280;50628;51.008;13.658;2023-07-13T01:51:57;99496.13;;;18.04;100.00
64292;BME280;50628;51.008;13.658;2023-07-13T01:56:59;99479.59;;;17.95;100.00
64292;BME280;50628;51.008;13.658;2023-07-13T02:02:01;99486.31;;;17.74;100.00
64292;BME280;50628;51.008;13.658;2023-07-13T02:07:05;99493.19;;;17.76;100.00
64292;BME280;50628;51.008;13.658;2023-07-13T02:12:07;99490.53;;;17.84;100.00
64292;BME280;50628;51.008;13.658;2023-07-13T02:17:09;99477.06;;;17.79;100.00
64292;BME280;50628;51.008;13.658;2023-07-13T02:22:13;99479.75;;;17.70;100.00
64292;BME280;50628;51.008;13.658;2023-07-13T02:27:15;99497.88;;;17.65;100.00
64292;BME280;50628;51.008;13.658;2023-07-13T02:32:16;99499.72;;;17.65;100.00
64292;BME280;50628;51.008;13.658;2023-07-13T02:37:20;99497.81;;;17.50;100.00
64292;BME280;50628;51.008;13.658;2023-07-13T02:42:22;99511.56;;;17.61;100.00
64292;BME280;50628;51.008;13.658;2023-07-13T02:47:24;99514.09;;;17.54;100.00
64292;BME280;50628;51.008;13.658;2023-07-13T02:52:28;99515.84;;;17.62;100.00
64292;BME280;50628;51.008;13.658;2023-07-13T02:57:30;99517.31;;;17.64;100.00
64292;BME280;50628;51.008;13.658;2023-07-13T03:02:34;99508.13;;;17.60;100.00
64292;BME280;50628;51.008;13.658;2023-07-13T03:07:37;99522.97;;;17.53;100.00
64292;BME280;50628;51.008;13.658;2023-07-13T03:12:39;99524.91;;;17.59;100.00
64292;BME280;50628;51.008;13.658;2023-07-13T03:17:47;99525.25;;;17.56;100.00
64292;BME280;50628;51.008;13.658;2023-07-13T03:22:51;99522.59;;;17.64;100.00
64292;BME280;50628;51.008;13.658;2023-07-13T03:27:54;99531.22;;;17.73;100.00
64292;BME280;50628;51.008;13.658;2023-07-13T03:32:57;99526.69;;;17.59;100.00
64292;BME280;50628;51.008;13.658;2023-07-13T03:38:01;99530.78;;;17.61;100.00
64292;BME280;50628;51.008;13.658;2023-07-13T03:43:04;99528.16;;;17.61;100.00
64292;BME280;50628;51.008;13.658;2023-07-13T03:48:06;99533.50;;;17.53;100.00
64292;BME280;50628;51.008;13.658;2023-07-13T03:53:10;99533.31;;;17.55;100.00
64292;BME280;50628;51.008;13.658;2023-07-13T03:58:40;99533.69;;;17.51;100.00
64292;BME280;50628;51.008;13.658;2023-07-13T04:03:48;99550.88;;;17.62;100.00
64292;BME280;50628;51.008;13.658;2023-07-13T04:08:53;99563.69;;;17.65;100.00
64292;BME280;50628;51.008;13.658;2023-07-13T04:13:55;99561.16;;;17.80;100.00
64292;BME280;50628;51.008;13.658;2023-07-13T04:18:57;99566.56;;;17.87;100.00
64292;BME280;50628;51.008;13.658;2023-07-13T04:24:02;99562.69;;;17.98;100.00
64292;BME280;50628;51.008;13.658;2023-07-13T04:29:05;99570.16;;;18.09;100.00
64292;BME280;50628;51.008;13.658;2023-07-13T04:34:07;99556.19;;;18.08;100.00
64292;BME280;50628;51.008;13.658;2023-07-13T04:39:10;99562.59;;;18.29;100.00
64292;BME280;50628;51.008;13.658;2023-07-13T04:44:12;99569.03;;;18.26;100.00
64292;BME280;50628;51.008;13.658;2023-07-13T04:49:14;99563.31;;;18.23;100.00
64292;BME280;50628;51.008;13.658;2023-07-13T04:54:17;99566.81;;;18.38;100.00
64292;BME280;50628;51.008;13.658;2023-07-13T04:59:19;99572.25;;;18.36;100.00
64292;BME280;50628;51.008;13.658;2023-07-13T05:04:21;99573.38;;;18.42;100.00
64292;BME280;50628;51.008;13.658;2023-07-13T05:09:24;99570.50;;;18.29;100.00
64292;BME280;50628;51.008;13.658;2023-07-13T05:14:26;99574.88;;;18.36;100.00
64292;BME280;50628;51.008;13.658;2023-07-13T05:19:28;99571.13;;;18.69;100.00
64292;BME280;50628;51.008;13.658;2023-07-13T05:24:31;99566.34;;;18.87;100.00
64292;BME280;50628;51.008;13.658;2023-07-13T05:29:33;99566.06;;;18.97;100.00
64292;BME280;50628;51.008;13.658;2023-07-13T05:34:35;99577.47;;;18.74;100.00
64292;BME280;50628;51.008;13.658;2023-07-13T05:39:39;99580.78;;;18.76;100.00
64292;BME280;50628;51.008;13.658;2023-07-13T05:44:41;99582.91;;;18.96;100.00
64292;BME280;50628;51.008;13.658;2023-07-13T05:49:43;99580.25;;;19.26;100.00
64292;BME280;50628;51.008;13.658;2023-07-13T05:54:46;99557.56;;;19.46;100.00
64292;BME280;50628;51.008;13.658;2023-07-13T05:59:48;99553.72;;;19.49;100.00
64292;BME280;50628;51.008;13.658;2023-07-13T06:04:50;99555.69;;;19.76;100.00
64292;BME280;50628;51.008;13.658;2023-07-13T06:09:53;99566.81;;;20.15;100.00
64292;BME280;50628;51.008;13.658;2023-07-13T06:14:55;99563.84;;;20.24;100.00
64292;BME280;50628;51.008;13.658;2023-07-13T06:19:57;99574.75;;;20.43;100.00
64292;BME280;50628;51.008;13.658;2023-07-13T06:25:00;99570.66;;;20.62;100.00
64292;BME280;50628;51.008;13.658;2023-07-13T06:30:02;99576.59;;;20.70;100.00
64292;BME280;50628;51.008;13.658;2023-07-13T06:35:05;99573.22;;;20.83;100.00
64292;BME280;50628;51.008;13.658;2023-07-13T06:40:10;99564.13;;;20.92;100.00
64292;BME280;50628;51.008;13.658;2023-07-13T06:45:12;99576.44;;;21.13;100.00
64292;BME280;50628;51.008;13.658;2023-07-13T06:50:14;99584.66;;;21.25;100.00
64292;BME280;50628;51.008;13.658;2023-07-13T06:55:17;99586.59;;;21.45;100.00
64292;BME280;50628;51.008;13.658;2023-07-13T07:00:19;99588.69;;;21.63;100.00
64292;BME280;50628;51.008;13.658;2023-07-13T07:05:21;99593.25;;;22.02;100.00
64292;BME280;50628;51.008;13.658;2023-07-13T07:10:25;99595.50;;;21.98;100.00
64292;BME280;50628;51.008;13.658;2023-07-13T07:15:27;99599.59;;;22.08;100.00
64292;BME280;50628;51.008;13.658;2023-07-13T07:20:29;99600.41;;;21.95;99.17
64292;BME280;50628;51.008;13.658;2023-07-13T07:25:34;99599.63;;;22.54;92.35
64292;BME280;50628;51.008;13.658;2023-07-13T07:30:42;99604.13;;;22.60;85.40
64292;BME280;50628;51.008;13.658;2023-07-13T07:35:44;99591.66;;;23.01;84.86
64292;BME280;50628;51.008;13.658;2023-07-13T07:40:47;99594.00;;;23.22;81.53
64292;BME280;50628;51.008;13.658;2023-07-13T07:45:49;99592.84;;;23.11;79.78
64292;BME280;50628;51.008;13.658;2023-07-13T07:50:51;99596.31;;;23.12;78.32
64292;BME280;50628;51.008;13.658;2023-07-13T07:55:54;99581.78;;;23.15;77.00
64292;BME280;50628;51.008;13.658;2023-07-13T08:01:02;99585.16;;;22.57;79.37
64292;BME280;50628;51.008;13.658;2023-07-13T08:06:05;99602.25;;;22.87;74.57
64292;BME280;50628;51.008;13.658;2023-07-13T08:11:09;99601.03;;;23.03;72.16
64292;BME280;50628;51.008;13.658;2023-07-13T08:16:12;99600.38;;;23.21;71.14
64292;BME280;50628;51.008;13.658;2023-07-13T08:21:14;99602.09;;;23.41;70.44
64292;BME280;50628;51.008;13.658;2023-07-13T08:26:17;99611.78;;;23.28;69.29
64292;BME280;50628;51.008;13.658;2023-07-13T08:31:19;99605.56;;;23.48;69.74
64292;BME280;50628;51.008;13.658;2023-07-13T08:36:21;99607.56;;;23.59;66.74
64292;BME280;50628;51.008;13.658;2023-07-13T08:41:24;99605.00;;;23.84;66.84
64292;BME280;50628;51.008;13.658;2023-07-13T08:46:31;99597.59;;;23.93;64.82
64292;BME280;50628;51.008;13.658;2023-07-13T08:51:40;99606.56;;;24.24;66.92
64292;BME280;50628;51.008;13.658;2023-07-13T08:56:46;99598.78;;;23.97;68.27
64292;BME280;50628;51.008;13.658;2023-07-13T09:01:58;99612.97;;;23.84;68.09
64292;BME280;50628;51.008;13.658;2023-07-13T09:07:09;99612.56;;;23.87;66.63
64292;BME280;50628;51.008;13.658;2023-07-13T09:12:21;99619.00;;;24.05;62.58
64292;BME280;50628;51.008;13.658;2023-07-13T09:17:28;99622.97;;;24.21;62.80
64292;BME280;50628;51.008;13.658;2023-07-13T09:22:34;99631.44;;;24.36;61.72
64292;BME280;50628;51.008;13.658;2023-07-13T09:27:43;99629.22;;;24.33;62.06
64292;BME280;50628;51.008;13.658;2023-07-13T09:32:50;99638.75;;;24.15;60.74
64292;BME280;50628;51.008;13.658;2023-07-13T09:37:55;99643.88;;;24.17;61.50
64292;BME280;50628;51.008;13.658;2023-07-13T09:43:00;99649.03;;;23.53;63.02
64292;BME280;50628;51.008;13.658;2023-07-13T09:48:06;99653.84;;;23.83;63.92
64292;BME280;50628;51.008;13.658;2023-07-13T09:53:13;99655.31;;;24.17;62.20
64292;BME280;50628;51.008;13.658;2023-07-13T09:58:18;99652.44;;;24.51;62.19
64292;BME280;50628;51.008;13.658;2023-07-13T10:03:24;99643.03;;;24.48;61.06
64292;BME280;50628;51.008;13.658;2023-07-13T10:08:29;99654.88;;;24.21;64.03
64292;BME280;50628;51.008;13.658;2023-07-13T10:13:36;99659.00;;;24.48;62.76
64292;BME280;50628;51.008;13.658;2023-07-13T10:18:43;99646.97;;;24.39;61.45
64292;BME280;50628;51.008;13.658;2023-07-13T10:23:50;99649.66;;;24.64;60.67
64292;BME280;50628;51.008;13.658;2023-07-13T10:28:57;99658.66;;;24.70;58.54
64292;BME280;50628;51.008;13.658;2023-07-13T10:34:00;99652.59;;;24.81;57.27
64292;BME280;50628;51.008;13.658;2023-07-13T10:39:04;99642.38;;;25.40;56.59
64292;BME280;50628;51.008;13.658;2023-07-13T10:44:15;99646.25;;;25.25;55.91
64292;BME280;50628;51.008;13.658;2023-07-13T10:49:20;99640.59;;;25.15;57.49
64292;BME280;50628;51.008;13.658;2023-07-13T10:54:27;99639.88;;;25.75;56.14
64292;BME280;50628;51.008;13.658;2023-07-13T10:59:33;99641.84;;;25.50;54.20
64292;BME280;50628;51.008;13.658;2023-07-13T11:04:41;99631.31;;;25.55;52.14
64292;BME280;50628;51.008;13.658;2023-07-13T11:09:49;99647.75;;;25.70;51.78
64292;BME280;50628;51.008;13.658;2023-07-13T11:15:05;99645.06;;;25.70;49.96
64292;BME280;50628;51.008;13.658;2023-07-13T11:20:19;99632.09;;;25.92;50.33
64292;BME280;50628;51.008;13.658;2023-07-13T11:25:27;99641.28;;;25.96;53.16
64292;BME280;50628;51.008;13.658;2023-07-13T11:30:37;99632.22;;;26.39;54.13
64292;BME280;50628;51.008;13.658;2023-07-13T11:35:53;99636.91;;;27.14;51.62
64292;BME280;50628;51.008;13.658;2023-07-13T11:41:03;99630.50;;;26.03;53.74
64292;BME280;50628;51.008;13.658;2023-07-13T11:46:14;99635.53;;;26.11;54.21
64292;BME280;50628;51.008;13.658;2023-07-13T11:51:21;99639.44;;;25.97;53.11
64292;BME280;50628;51.008;13.658;2023-07-13T11:56:24;99624.94;;;25.74;52.52
64292;BME280;50628;51.008;13.658;2023-07-13T12:01:30;99630.63;;;26.73;49.66
64292;BME280;50628;51.008;13.658;2023-07-13T12:06:34;99618.81;;;26.69;50.57
64292;BME280;50628;51.008;13.658;2023-07-13T12:11:41;99623.47;;;25.78;51.83
64292;BME280;50628;51.008;13.658;2023-07-13T12:16:46;99624.63;;;26.66;50.82
64292;BME280;50628;51.008;13.658;2023-07-13T12:21:52;99615.34;;;27.45;48.90
64292;BME280;50628;51.008;13.658;2023-07-13T12:26:58;99611.47;;;27.81;46.92
64292;BME280;50628;51.008;13.658;2023-07-13T12:32:08;99609.03;;;26.63;48.97
64292;BME280;50628;51.008;13.658;2023-07-13T12:37:12;99618.13;;;26.74;48.95
64292;BME280;50628;51.008;13.658;2023-07-13T12:42:20;99611.09;;;27.60;47.75
64292;BME280;50628;51.008;13.658;2023-07-13T12:47:26;99601.53;;;28.56;45.13
64292;BME280;50628;51.008;13.658;2023-07-13T12:52:30;99611.91;;;28.18;45.80
64292;BME280;50628;51.008;13.658;2023-07-13T12:57:39;99608.25;;;28.24;44.67
64292;BME280;50628;51.008;13.658;2023-07-13T13:02:42;99605.81;;;28.57;42.85
64292;BME280;50628;51.008;13.658;2023-07-13T13:07:44;99601.28;;;28.57;42.08
64292;BME280;50628;51.008;13.658;2023-07-13T13:12:47;99606.63;;;28.74;41.21
64292;BME280;50628;51.008;13.658;2023-07-13T13:17:50;99613.13;;;28.27;41.77
64292;BME280;50628;51.008;13.658;2023-07-13T13:22:52;99614.06;;;27.47;42.05
64292;BME280;50628;51.008;13.658;2023-07-13T13:27:55;99612.28;;;28.27;41.07
64292;BME280;50628;51.008;13.658;2023-07-13T13:32:58;99596.00;;;29.01;40.65
64292;BME280;50628;51.008;13.658;2023-07-13T13:38:00;99596.09;;;29.28;40.02
64292;BME280;50628;51.008;13.658;2023-07-13T13:43:04;99602.56;;;29.10;40.35
64292;BME280;50628;51.008;13.658;2023-07-13T13:48:15;99608.75;;;29.11;39.93
64292;BME280;50628;51.008;13.658;2023-07-13T13:53:18;99601.25;;;28.74;41.06
64292;BME280;50628;51.008;13.658;2023-07-13T13:58:20;99610.91;;;28.75;40.99
64292;BME280;50628;51.008;13.658;2023-07-13T14:03:24;99615.66;;;29.29;39.68
64292;BME280;50628;51.008;13.658;2023-07-13T14:08:26;99598.28;;;29.31;39.37
64292;BME280;50628;51.008;13.658;2023-07-13T14:13:31;99608.31;;;29.02;41.00
64292;BME280;50628;51.008;13.658;2023-07-13T14:18:37;99607.09;;;29.54;39.13
64292;BME280;50628;51.008;13.658;2023-07-13T14:23:39;99604.59;;;30.66;38.41
64292;BME280;50628;51.008;13.658;2023-07-13T14:28:43;99593.50;;;29.88;37.78
64292;BME280;50628;51.008;13.658;2023-07-13T14:33:47;99600.97;;;29.31;39.34
64292;BME280;50628;51.008;13.658;2023-07-13T14:38:49;99596.34;;;29.27;38.51
64292;BME280;50628;51.008;13.658;2023-07-13T14:43:51;99606.69;;;28.62;39.75
64292;BME280;50628;51.008;13.658;2023-07-13T14:48:59;99598.34;;;28.76;39.91
64292;BME280;50628;51.008;13.658;2023-07-13T14:54:04;99597.16;;;28.50;40.10
64292;BME280;50628;51.008;13.658;2023-07-13T14:59:06;99606.56;;;28.52;39.30
64292;BME280;50628;51.008;13.658;2023-07-13T15:04:09;99598.50;;;27.85;40.06
64292;BME280;50628;51.008;13.658;2023-07-13T15:09:11;99592.91;;;28.37;38.47
64292;BME280;50628;51.008;13.658;2023-07-13T15:14:13;99601.59;;;29.66;37.66
64292;BME280;50628;51.008;13.658;2023-07-13T15:19:17;99596.84;;;29.24;36.59
64292;BME280;50628;51.008;13.658;2023-07-13T15:24:20;99596.63;;;29.52;35.23
64292;BME280;50628;51.008;13.658;2023-07-13T15:29:22;99605.34;;;28.99;36.87
64292;BME280;50628;51.008;13.658;2023-07-13T15:34:26;99610.38;;;29.83;35.50
64292;BME280;50628;51.008;13.658;2023-07-13T15:39:28;99598.84;;;29.61;34.87
64292;BME280;50628;51.008;13.658;2023-07-13T15:44:32;99610.66;;;29.60;34.50
64292;BME280;50628;51.008;13.658;2023-07-13T15:49:36;99607.72;;;29.61;34.71
64292;BME280;50628;51.008;13.658;2023-07-13T15:54:38;99609.56;;;29.61;33.76
64292;BME280;50628;51.008;13.658;2023-07-13T15:59:40;99619.47;;;29.11;34.69
64292;BME280;50628;51.008;13.658;2023-07-13T16:04:44;99605.41;;;29.21;33.97
64292;BME280;50628;51.008;13.658;2023-07-13T16:09:47;99608.84;;;28.99;33.67
64292;BME280;50628;51.008;13.658;2023-07-13T16:14:50;99613.16;;;29.22;33.71
64292;BME280;50628;51.008;13.658;2023-07-13T16:19:53;99616.47;;;28.52;35.06
64292;BME280;50628;51.008;13.658;2023-07-13T16:24:56;99619.91;;;28.01;35.01
64292;BME280;50628;51.008;13.658;2023-07-13T16:30:11;99629.03;;;27.60;35.77
64292;BME280;50628;51.008;13.658;2023-07-13T16:35:14;99631.09;;;27.29;36.29
64292;BME280;50628;51.008;13.658;2023-07-13T16:40:22;99633.31;;;27.21;36.37
64292;BME280;50628;51.008;13.658;2023-07-13T16:45:26;99646.53;;;26.68;37.22
64292;BME280;50628;51.008;13.658;2023-07-13T16:50:33;99653.16;;;26.77;37.83
64292;BME280;50628;51.008;13.658;2023-07-13T16:55:35;99645.03;;;26.72;37.29
64292;BME280;50628;51.008;13.658;2023-07-13T17:00:37;99649.56;;;26.72;37.83
64292;BME280;50628;51.008;13.658;2023-07-13T17:05:42;99648.06;;;26.64;38.11
64292;BME280;50628;51.008;13.658;2023-07-13T17:10:44;99669.31;;;26.59;38.40
64292;BME280;50628;51.008;13.658;2023-07-13T17:15:48;99672.09;;;26.22;38.22
64292;BME280;50628;51.008;13.658;2023-07-13T17:20:55;99676.34;;;25.63;38.69
64292;BME280;50628;51.008;13.658;2023-07-13T17:25:57;99673.69;;;25.63;39.34
64292;BME280;50628;51.008;13.658;2023-07-13T17:31:00;99668.91;;;25.83;39.48
64292;BME280;50628;51.008;13.658;2023-07-13T17:36:05;99670.38;;;25.79;39.41
64292;BME280;50628;51.008;13.658;2023-07-13T17:41:08;99678.63;;;25.59;39.62
64292;BME280;50628;51.008;13.658;2023-07-13T17:46:13;99675.91;;;25.66;39.87
64292;BME280;50628;51.008;13.658;2023-07-13T17:51:18;99684.88;;;25.53;40.07
64292;BME280;50628;51.008;13.658;2023-07-13T17:56:21;99684.22;;;25.58;40.18
64292;BME280;50628;51.008;13.658;2023-07-13T18:01:27;99688.78;;;25.32;40.49
64292;BME280;50628;51.008;13.658;2023-07-13T18:06:34;99694.25;;;25.19;40.85
64292;BME280;50628;51.008;13.658;2023-07-13T18:11:37;99693.00;;;25.15;40.38
64292;BME280;50628;51.008;13.658;2023-07-13T18:16:40;99705.53;;;25.14;40.99
64292;BME280;50628;51.008;13.658;2023-07-13T18:21:45;99700.66;;;25.11;40.24
64292;BME280;50628;51.008;13.658;2023-07-13T18:26:47;99704.03;;;25.00;40.64
64292;BME280;50628;51.008;13.658;2023-07-13T18:31:49;99711.34;;;24.79;41.58
64292;BME280;50628;51.008;13.658;2023-07-13T18:36:53;99718.28;;;24.62;42.04
64292;BME280;50628;51.008;13.658;2023-07-13T18:41:56;99726.94;;;24.44;42.69
64292;BME280;50628;51.008;13.658;2023-07-13T18:46:58;99721.03;;;24.42;43.33
64292;BME280;50628;51.008;13.658;2023-07-13T18:52:03;99729.94;;;24.23;43.99
64292;BME280;50628;51.008;13.658;2023-07-13T18:57:06;99735.09;;;24.11;44.32
64292;BME280;50628;51.008;13.658;2023-07-13T19:02:10;99748.84;;;24.01;45.49
64292;BME280;50628;51.008;13.658;2023-07-13T19:07:14;99748.16;;;23.74;45.92
64292;BME280;50628;51.008;13.658;2023-07-13T19:12:17;99760.25;;;23.43;46.96
64292;BME280;50628;51.008;13.658;2023-07-13T19:17:20;99763.94;;;23.49;47.20
64292;BME280;50628;51.008;13.658;2023-07-13T19:22:23;99776.81;;;23.25;49.12
64292;BME280;50628;51.008;13.658;2023-07-13T19:27:25;99791.53;;;23.15;51.31
64292;BME280;50628;51.008;13.658;2023-07-13T19:32:27;99799.44;;;22.88;52.85
64292;BME280;50628;51.008;13.658;2023-07-13T19:37:32;99800.44;;;22.67;53.12
64292;BME280;50628;51.008;13.658;2023-07-13T19:42:36;99814.53;;;22.74;54.63
64292;BME280;50628;51.008;13.658;2023-07-13T19:47:38;99815.88;;;22.50;55.28
64292;BME280;50628;51.008;13.658;2023-07-13T19:52:45;99821.75;;;22.32;58.08
64292;BME280;50628;51.008;13.658;2023-07-13T19:57:48;99826.69;;;22.35;58.44
64292;BME280;50628;51.008;13.658;2023-07-13T20:02:51;99819.94;;;21.98;60.99
64292;BME280;50628;51.008;13.658;2023-07-13T20:07:56;99829.97;;;21.74;64.50
64292;BME280;50628;51.008;13.658;2023-07-13T20:12:59;99835.66;;;21.65;67.39
64292;BME280;50628;51.008;13.658;2023-07-13T20:18:01;99836.31;;;21.45;70.26
64292;BME280;50628;51.008;13.658;2023-07-13T20:23:10;99845.50;;;21.06;78.90
64292;BME280;50628;51.008;13.658;2023-07-13T20:28:14;99853.28;;;21.08;82.80
64292;BME280;50628;51.008;13.658;2023-07-13T20:33:17;99860.84;;;20.89;85.86
64292;BME280;50628;51.008;13.658;2023-07-13T20:38:23;99860.13;;;20.81;87.73
64292;BME280;50628;51.008;13.658;2023-07-13T20:43:27;99863.25;;;20.69;93.28
64292;BME280;50628;51.008;13.658;2023-07-13T20:48:36;99874.13;;;20.60;86.42
64292;BME280;50628;51.008;13.658;2023-07-13T20:53:40;99878.03;;;20.49;83.81
64292;BME280;50628;51.008;13.658;2023-07-13T20:58:42;99878.66;;;20.66;81.35
64292;BME280;50628;51.008;13.658;2023-07-13T21:03:45;99879.03;;;20.63;78.25
64292;BME280;50628;51.008;13.658;2023-07-13T21:08:48;99887.78;;;20.48;77.94
64292;BME280;50628;51.008;13.658;2023-07-13T21:13:50;99890.16;;;20.58;78.18
64292;BME280;50628;51.008;13.658;2023-07-13T21:18:52;99903.31;;;20.37;80.87
64292;BME280;50628;51.008;13.658;2023-07-13T21:23:55;99917.88;;;20.32;82.06
64292;BME280;50628;51.008;13.658;2023-07-13T21:28:57;99922.34;;;20.17;79.53
64292;BME280;50628;51.008;13.658;2023-07-13T21:34:02;99931.09;;;20.18;79.54
64292;BME280;50628;51.008;13.658;2023-07-13T21:39:11;99943.22;;;20.27;83.22
64292;BME280;50628;51.008;13.658;2023-07-13T21:44:23;99942.19;;;20.13;91.08
64292;BME280;50628;51.008;13.658;2023-07-13T21:49:25;99949.47;;;19.96;97.28
64292;BME280;50628;51.008;13.658;2023-07-13T21:54:28;99960.94;;;19.88;94.70
64292;BME280;50628;51.008;13.658;2023-07-13T21:59:30;99970.22;;;19.84;99.65
64292;BME280;50628;51.008;13.658;2023-07-13T22:04:32;99968.22;;;19.86;97.38
64292;BME280;50628;51.008;13.658;2023-07-13T22:09:36;99979.56;;;19.72;98.36
64292;BME280;50628;51.008;13.658;2023-07-13T22:14:38;99969.41;;;19.84;92.31
64292;BME280;50628;51.008;13.658;2023-07-13T22:19:40;99981.72;;;19.92;87.57
64292;BME280;50628;51.008;13.658;2023-07-13T22:24:43;99976.34;;;20.00;84.60
64292;BME280;50628;51.008;13.658;2023-07-13T22:29:45;99973.06;;;19.98;87.01
64292;BME280;50628;51.008;13.658;2023-07-13T22:34:48;99986.00;;;19.93;89.28
64292;BME280;50628;51.008;13.658;2023-07-13T22:39:51;99985.06;;;19.85;93.81
64292;BME280;50628;51.008;13.658;2023-07-13T22:44:54;99991.78;;;19.65;98.31
64292;BME280;50628;51.008;13.658;2023-07-13T22:49:56;99994.38;;;19.50;100.00
64292;BME280;50628;51.008;13.658;2023-07-13T22:54:59;100000.81;;;19.48;99.55
64292;BME280;50628;51.008;13.658;2023-07-13T23:00:01;100000.94;;;19.54;95.73
64292;BME280;50628;51.008;13.658;2023-07-13T23:05:03;99994.50;;;19.57;96.96
64292;BME280;50628;51.008;13.658;2023-07-13T23:10:14;99994.63;;;19.63;95.09
64292;BME280;50628;51.008;13.658;2023-07-13T23:15:19;99998.31;;;19.54;91.61
64292;BME280;50628;51.008;13.658;2023-07-13T23:20:23;100005.19;;;19.63;94.52
64292;BME280;50628;51.008;13.658;2023-07-13T23:25:29;100006.53;;;19.59;98.56
64292;BME280;50628;51.008;13.658;2023-07-13T23:30:33;100002.34;;;19.42;99.08
64292;BME280;50628;51.008;13.658;2023-07-13T23:35:35;99993.91;;;19.46;97.97
64292;BME280;50628;51.008;13.658;2023-07-13T23:40:39;99997.50;;;19.22;100.00
64292;BME280;50628;51.008;13.658;2023-07-13T23:45:41;99995.34;;;19.26;100.00
64292;BME280;50628;51.008;13.658;2023-07-13T23:50:43;100008.25;;;19.21;100.00
64292;BME280;50628;51.008;13.658;2023-07-13T23:55:46;100006.94;;;18.86;100.00
